sensor_id;sensor_type;location;lat;lon;timestamp;P1;durP1;ratioP1;P2;durP2;ratioP2
14722;SDS011;7452;55.594;12.986;2022-10-03T00:00:35;17.50;;;3.70;;
14722;SDS011;7452;55.594;12.986;2022-10-03T00:03:13;19.03;;;3.97;;
14722;SDS011;7452;55.594;12.986;2022-10-03T00:06:05;22.70;;;3.93;;
14722;SDS011;7452;55.594;12.986;2022-10-03T00:08:49;17.37;;;4.07;;
14722;SDS011;7452;55.594;12.986;2022-10-03T00:11:42;22.37;;;4.83;;
14722;SDS011;7452;55.594;12.986;2022-10-03T00:14:24;16.97;;;4.53;;
14722;SDS011;7452;55.594;12.986;2022-10-03T00:17:01;14.53;;;3.80;;
14722;SDS011;7452;55.594;12.986;2022-10-03T00:19:34;13.67;;;4.17;;
14722;SDS011;7452;55.594;12.986;2022-10-03T00:22:14;20.90;;;4.10;;
14722;SDS011;7452;55.594;12.986;2022-10-03T00:24:55;17.97;;;3.63;;
14722;SDS011;7452;55.594;12.986;2022-10-03T00:27:37;17.83;;;4.03;;
14722;SDS011;7452;55.594;12.986;2022-10-03T00:30:15;20.40;;;3.70;;
14722;SDS011;7452;55.594;12.986;2022-10-03T00:32:53;23.53;;;4.03;;
14722;SDS011;7452;55.594;12.986;2022-10-03T00:35:34;14.50;;;3.57;;
14722;SDS011;7452;55.594;12.986;2022-10-03T00:38:18;20.00;;;4.10;;
14722;SDS011;7452;55.594;12.986;2022-10-03T00:41:12;17.43;;;4.07;;
14722;SDS011;7452;55.594;12.986;2022-10-03T00:47:20;18.33;;;3.73;;
14722;SDS011;7452;55.594;12.986;2022-10-03T00:50:18;18.37;;;4.30;;
14722;SDS011;7452;55.594;12.986;2022-10-03T00:53:18;15.93;;;3.87;;
14722;SDS011;7452;55.594;12.986;2022-10-03T00:56:02;17.33;;;4.00;;
14722;SDS011;7452;55.594;12.986;2022-10-03T00:58:48;14.90;;;3.53;;
14722;SDS011;7452;55.594;12.986;2022-10-03T01:01:41;17.53;;;3.97;;
14722;SDS011;7452;55.594;12.986;2022-10-03T01:04:19;17.37;;;4.13;;
14722;SDS011;7452;55.594;12.986;2022-10-03T01:06:59;16.87;;;4.50;;
14722;SDS011;7452;55.594;12.986;2022-10-03T01:09:41;21.87;;;4.17;;
14722;SDS011;7452;55.594;12.986;2022-10-03T01:12:43;18.60;;;3.97;;
14722;SDS011;7452;55.594;12.986;2022-10-03T01:15:44;23.33;;;4.43;;
14722;SDS011;7452;55.594;12.986;2022-10-03T01:18:23;14.83;;;3.90;;
14722;SDS011;7452;55.594;12.986;2022-10-03T01:21:04;23.43;;;4.33;;
14722;SDS011;7452;55.594;12.986;2022-10-03T01:26:53;19.20;;;4.33;;
14722;SDS011;7452;55.594;12.986;2022-10-03T01:29:28;16.40;;;3.90;;
14722;SDS011;7452;55.594;12.986;2022-10-03T01:32:25;16.43;;;3.27;;
14722;SDS011;7452;55.594;12.986;2022-10-03T01:35:05;19.53;;;4.13;;
14722;SDS011;7452;55.594;12.986;2022-10-03T01:37:42;17.30;;;3.70;;
14722;SDS011;7452;55.594;12.986;2022-10-03T01:40:23;16.73;;;4.10;;
14722;SDS011;7452;55.594;12.986;2022-10-03T01:42:59;16.77;;;3.60;;
14722;SDS011;7452;55.594;12.986;2022-10-03T01:45:39;15.27;;;3.53;;
14722;SDS011;7452;55.594;12.986;2022-10-03T01:48:16;20.53;;;3.67;;
14722;SDS011;7452;55.594;12.986;2022-10-03T01:50:50;15.80;;;3.80;;
14722;SDS011;7452;55.594;12.986;2022-10-03T01:53:27;17.70;;;4.27;;
14722;SDS011;7452;55.594;12.986;2022-10-03T01:56:06;18.47;;;3.67;;
14722;SDS011;7452;55.594;12.986;2022-10-03T01:58:46;20.37;;;4.00;;
14722;SDS011;7452;55.594;12.986;2022-10-03T02:01:23;20.10;;;4.00;;
14722;SDS011;7452;55.594;12.986;2022-10-03T02:03:58;17.03;;;3.40;;
14722;SDS011;7452;55.594;12.986;2022-10-03T02:06:33;11.60;;;3.50;;
14722;SDS011;7452;55.594;12.986;2022-10-03T02:09:10;18.10;;;3.37;;
14722;SDS011;7452;55.594;12.986;2022-10-03T02:12:03;20.33;;;3.80;;
14722;SDS011;7452;55.594;12.986;2022-10-03T02:14:39;17.77;;;3.60;;
14722;SDS011;7452;55.594;12.986;2022-10-03T02:17:22;16.87;;;3.80;;
14722;SDS011;7452;55.594;12.986;2022-10-03T02:19:56;21.47;;;4.10;;
14722;SDS011;7452;55.594;12.986;2022-10-03T02:22:41;17.17;;;3.77;;
14722;SDS011;7452;55.594;12.986;2022-10-03T02:25:14;22.43;;;3.90;;
14722;SDS011;7452;55.594;12.986;2022-10-03T02:30:55;24.23;;;4.27;;
14722;SDS011;7452;55.594;12.986;2022-10-03T02:37:16;23.30;;;4.17;;
14722;SDS011;7452;55.594;12.986;2022-10-03T02:43:30;17.33;;;4.20;;
14722;SDS011;7452;55.594;12.986;2022-10-03T02:46:41;17.57;;;4.00;;
14722;SDS011;7452;55.594;12.986;2022-10-03T02:53:00;25.00;;;4.63;;
14722;SDS011;7452;55.594;12.986;2022-10-03T02:56:08;30.13;;;4.80;;
14722;SDS011;7452;55.594;12.986;2022-10-03T03:02:10;21.77;;;4.40;;
14722;SDS011;7452;55.594;12.986;2022-10-03T03:17:11;21.33;;;4.20;;
14722;SDS011;7452;55.594;12.986;2022-10-03T03:19:52;18.17;;;4.17;;
14722;SDS011;7452;55.594;12.986;2022-10-03T03:22:32;23.20;;;4.47;;
14722;SDS011;7452;55.594;12.986;2022-10-03T03:25:18;21.30;;;4.57;;
14722;SDS011;7452;55.594;12.986;2022-10-03T03:28:06;17.17;;;3.70;;
14722;SDS011;7452;55.594;12.986;2022-10-03T03:30:51;18.77;;;4.03;;
14722;SDS011;7452;55.594;12.986;2022-10-03T03:33:26;23.10;;;3.63;;
14722;SDS011;7452;55.594;12.986;2022-10-03T03:36:00;19.40;;;4.23;;
14722;SDS011;7452;55.594;12.986;2022-10-03T03:38:39;18.53;;;4.30;;
14722;SDS011;7452;55.594;12.986;2022-10-03T03:44:28;13.60;;;3.87;;
14722;SDS011;7452;55.594;12.986;2022-10-03T03:47:13;22.60;;;4.47;;
14722;SDS011;7452;55.594;12.986;2022-10-03T03:50:04;25.30;;;4.70;;
14722;SDS011;7452;55.594;12.986;2022-10-03T03:52:48;22.10;;;3.93;;
14722;SDS011;7452;55.594;12.986;2022-10-03T03:55:34;20.43;;;4.23;;
14722;SDS011;7452;55.594;12.986;2022-10-03T03:58:27;21.90;;;4.10;;
14722;SDS011;7452;55.594;12.986;2022-10-03T04:01:15;22.80;;;4.63;;
14722;SDS011;7452;55.594;12.986;2022-10-03T04:04:07;20.60;;;4.40;;
14722;SDS011;7452;55.594;12.986;2022-10-03T04:06:52;23.27;;;4.53;;
14722;SDS011;7452;55.594;12.986;2022-10-03T04:09:40;20.00;;;4.60;;
14722;SDS011;7452;55.594;12.986;2022-10-03T04:12:25;30.83;;;5.03;;
14722;SDS011;7452;55.594;12.986;2022-10-03T04:15:14;24.57;;;3.67;;
14722;SDS011;7452;55.594;12.986;2022-10-03T04:18:09;20.53;;;4.70;;
14722;SDS011;7452;55.594;12.986;2022-10-03T04:21:27;21.87;;;4.40;;
14722;SDS011;7452;55.594;12.986;2022-10-03T04:24:13;21.87;;;4.83;;
14722;SDS011;7452;55.594;12.986;2022-10-03T04:27:05;17.90;;;3.63;;
14722;SDS011;7452;55.594;12.986;2022-10-03T04:29:44;15.70;;;3.87;;
14722;SDS011;7452;55.594;12.986;2022-10-03T04:35:21;14.07;;;3.40;;
14722;SDS011;7452;55.594;12.986;2022-10-03T04:38:00;17.17;;;3.27;;
14722;SDS011;7452;55.594;12.986;2022-10-03T04:40:40;18.07;;;3.70;;
14722;SDS011;7452;55.594;12.986;2022-10-03T04:43:14;15.83;;;3.30;;
14722;SDS011;7452;55.594;12.986;2022-10-03T04:46:00;14.70;;;3.70;;
14722;SDS011;7452;55.594;12.986;2022-10-03T04:48:43;13.90;;;3.60;;
14722;SDS011;7452;55.594;12.986;2022-10-03T04:51:19;12.23;;;3.30;;
14722;SDS011;7452;55.594;12.986;2022-10-03T04:54:02;17.93;;;3.33;;
14722;SDS011;7452;55.594;12.986;2022-10-03T04:56:43;14.17;;;3.37;;
14722;SDS011;7452;55.594;12.986;2022-10-03T04:59:28;12.93;;;3.57;;
14722;SDS011;7452;55.594;12.986;2022-10-03T05:02:06;23.10;;;3.13;;
14722;SDS011;7452;55.594;12.986;2022-10-03T05:04:50;18.07;;;3.43;;
14722;SDS011;7452;55.594;12.986;2022-10-03T05:07:28;14.83;;;3.57;;
14722;SDS011;7452;55.594;12.986;2022-10-03T05:10:16;16.30;;;3.87;;
14722;SDS011;7452;55.594;12.986;2022-10-03T05:12:53;20.63;;;3.70;;
14722;SDS011;7452;55.594;12.986;2022-10-03T05:15:28;15.93;;;3.20;;
14722;SDS011;7452;55.594;12.986;2022-10-03T05:18:04;16.43;;;3.40;;
14722;SDS011;7452;55.594;12.986;2022-10-03T05:20:48;21.37;;;4.27;;
14722;SDS011;7452;55.594;12.986;2022-10-03T05:23:27;20.67;;;3.93;;
14722;SDS011;7452;55.594;12.986;2022-10-03T05:26:06;18.03;;;3.30;;
14722;SDS011;7452;55.594;12.986;2022-10-03T05:28:41;16.87;;;3.33;;
14722;SDS011;7452;55.594;12.986;2022-10-03T05:31:21;16.20;;;3.47;;
14722;SDS011;7452;55.594;12.986;2022-10-03T05:33:58;14.53;;;3.17;;
14722;SDS011;7452;55.594;12.986;2022-10-03T05:36:39;19.00;;;3.93;;
14722;SDS011;7452;55.594;12.986;2022-10-03T05:39:33;16.10;;;3.67;;
14722;SDS011;7452;55.594;12.986;2022-10-03T05:45:18;24.50;;;3.50;;
14722;SDS011;7452;55.594;12.986;2022-10-03T05:47:55;13.10;;;3.23;;
14722;SDS011;7452;55.594;12.986;2022-10-03T05:56:43;14.37;;;2.93;;
14722;SDS011;7452;55.594;12.986;2022-10-03T05:59:35;11.20;;;3.20;;
14722;SDS011;7452;55.594;12.986;2022-10-03T06:05:26;17.70;;;3.10;;
14722;SDS011;7452;55.594;12.986;2022-10-03T06:11:12;16.53;;;3.10;;
14722;SDS011;7452;55.594;12.986;2022-10-03T06:17:08;16.83;;;2.80;;
14722;SDS011;7452;55.594;12.986;2022-10-03T06:19:53;15.43;;;3.10;;
14722;SDS011;7452;55.594;12.986;2022-10-03T06:22:47;16.17;;;3.30;;
14722;SDS011;7452;55.594;12.986;2022-10-03T06:25:59;14.50;;;3.17;;
14722;SDS011;7452;55.594;12.986;2022-10-03T06:29:13;16.47;;;3.23;;
14722;SDS011;7452;55.594;12.986;2022-10-03T06:38:29;17.10;;;3.67;;
14722;SDS011;7452;55.594;12.986;2022-10-03T06:44:48;14.60;;;3.30;;
14722;SDS011;7452;55.594;12.986;2022-10-03T06:47:29;14.30;;;3.57;;
14722;SDS011;7452;55.594;12.986;2022-10-03T06:53:13;15.77;;;3.30;;
14722;SDS011;7452;55.594;12.986;2022-10-03T07:02:13;15.67;;;3.47;;
14722;SDS011;7452;55.594;12.986;2022-10-03T07:08:24;16.23;;;3.67;;
14722;SDS011;7452;55.594;12.986;2022-10-03T07:11:20;11.40;;;2.70;;
14722;SDS011;7452;55.594;12.986;2022-10-03T07:17:07;16.97;;;3.67;;
14722;SDS011;7452;55.594;12.986;2022-10-03T07:19:58;16.43;;;3.73;;
14722;SDS011;7452;55.594;12.986;2022-10-03T07:23:04;14.87;;;3.50;;
14722;SDS011;7452;55.594;12.986;2022-10-03T07:26:10;18.53;;;4.30;;
14722;SDS011;7452;55.594;12.986;2022-10-03T07:29:07;18.83;;;3.93;;
14722;SDS011;7452;55.594;12.986;2022-10-03T07:31:44;17.67;;;4.23;;
14722;SDS011;7452;55.594;12.986;2022-10-03T07:34:36;17.90;;;3.80;;
14722;SDS011;7452;55.594;12.986;2022-10-03T07:37:36;22.30;;;4.87;;
14722;SDS011;7452;55.594;12.986;2022-10-03T07:43:59;19.40;;;4.43;;
14722;SDS011;7452;55.594;12.986;2022-10-03T07:46:51;16.73;;;4.23;;
14722;SDS011;7452;55.594;12.986;2022-10-03T07:49:54;19.97;;;3.77;;
14722;SDS011;7452;55.594;12.986;2022-10-03T07:52:59;15.87;;;3.43;;
14722;SDS011;7452;55.594;12.986;2022-10-03T07:58:35;14.53;;;3.53;;
14722;SDS011;7452;55.594;12.986;2022-10-03T08:01:34;18.27;;;3.83;;
14722;SDS011;7452;55.594;12.986;2022-10-03T08:07:18;17.63;;;4.10;;
14722;SDS011;7452;55.594;12.986;2022-10-03T08:10:10;18.90;;;4.43;;
14722;SDS011;7452;55.594;12.986;2022-10-03T08:12:52;19.77;;;4.10;;
14722;SDS011;7452;55.594;12.986;2022-10-03T08:15:45;16.27;;;3.60;;
14722;SDS011;7452;55.594;12.986;2022-10-03T08:18:33;15.37;;;4.03;;
14722;SDS011;7452;55.594;12.986;2022-10-03T08:21:17;15.50;;;3.80;;
14722;SDS011;7452;55.594;12.986;2022-10-03T08:26:46;16.63;;;4.30;;
14722;SDS011;7452;55.594;12.986;2022-10-03T08:29:34;15.83;;;3.57;;
14722;SDS011;7452;55.594;12.986;2022-10-03T08:35:51;15.33;;;3.10;;
14722;SDS011;7452;55.594;12.986;2022-10-03T08:38:49;15.70;;;3.60;;
14722;SDS011;7452;55.594;12.986;2022-10-03T08:47:45;12.93;;;3.23;;
14722;SDS011;7452;55.594;12.986;2022-10-03T08:50:48;12.37;;;2.90;;
14722;SDS011;7452;55.594;12.986;2022-10-03T08:56:52;11.30;;;2.53;;
14722;SDS011;7452;55.594;12.986;2022-10-03T09:02:58;9.70;;;2.50;;
14722;SDS011;7452;55.594;12.986;2022-10-03T09:05:50;10.27;;;2.67;;
14722;SDS011;7452;55.594;12.986;2022-10-03T09:15:02;11.33;;;2.27;;
14722;SDS011;7452;55.594;12.986;2022-10-03T09:17:56;7.27;;;2.27;;
14722;SDS011;7452;55.594;12.986;2022-10-03T09:20:48;10.53;;;2.63;;
14722;SDS011;7452;55.594;12.986;2022-10-03T09:23:44;9.60;;;2.37;;
14722;SDS011;7452;55.594;12.986;2022-10-03T09:29:37;6.83;;;1.93;;
14722;SDS011;7452;55.594;12.986;2022-10-03T09:32:40;9.87;;;2.27;;
14722;SDS011;7452;55.594;12.986;2022-10-03T09:35:37;8.07;;;2.17;;
14722;SDS011;7452;55.594;12.986;2022-10-03T09:38:30;12.13;;;2.67;;
14722;SDS011;7452;55.594;12.986;2022-10-03T09:41:26;7.90;;;1.90;;
14722;SDS011;7452;55.594;12.986;2022-10-03T09:44:09;13.33;;;2.50;;
14722;SDS011;7452;55.594;12.986;2022-10-03T09:47:07;9.93;;;2.63;;
14722;SDS011;7452;55.594;12.986;2022-10-03T09:50:13;8.47;;;2.20;;
14722;SDS011;7452;55.594;12.986;2022-10-03T09:53:17;8.10;;;2.20;;
14722;SDS011;7452;55.594;12.986;2022-10-03T09:56:06;7.57;;;1.90;;
14722;SDS011;7452;55.594;12.986;2022-10-03T09:58:58;10.70;;;2.27;;
14722;SDS011;7452;55.594;12.986;2022-10-03T10:01:39;5.63;;;1.87;;
14722;SDS011;7452;55.594;12.986;2022-10-03T10:10:45;11.07;;;2.23;;
14722;SDS011;7452;55.594;12.986;2022-10-03T10:16:47;6.80;;;2.00;;
14722;SDS011;7452;55.594;12.986;2022-10-03T10:19:45;8.23;;;1.90;;
14722;SDS011;7452;55.594;12.986;2022-10-03T10:22:37;6.93;;;1.90;;
14722;SDS011;7452;55.594;12.986;2022-10-03T10:25:30;5.37;;;1.77;;
14722;SDS011;7452;55.594;12.986;2022-10-03T10:37:54;6.33;;;1.80;;
14722;SDS011;7452;55.594;12.986;2022-10-03T10:43:59;6.13;;;1.80;;
14722;SDS011;7452;55.594;12.986;2022-10-03T10:59:53;7.90;;;2.47;;
14722;SDS011;7452;55.594;12.986;2022-10-03T11:09:26;10.77;;;1.90;;
14722;SDS011;7452;55.594;12.986;2022-10-03T11:15:37;7.93;;;2.10;;
14722;SDS011;7452;55.594;12.986;2022-10-03T11:27:54;8.97;;;2.07;;
14722;SDS011;7452;55.594;12.986;2022-10-03T11:31:14;9.47;;;2.50;;
14722;SDS011;7452;55.594;12.986;2022-10-03T11:37:21;8.30;;;2.13;;
14722;SDS011;7452;55.594;12.986;2022-10-03T11:40:03;9.30;;;2.50;;
14722;SDS011;7452;55.594;12.986;2022-10-03T11:46:25;7.57;;;2.27;;
14722;SDS011;7452;55.594;12.986;2022-10-03T11:49:06;7.50;;;2.30;;
14722;SDS011;7452;55.594;12.986;2022-10-03T11:51:45;6.33;;;2.17;;
14722;SDS011;7452;55.594;12.986;2022-10-03T11:54:28;7.75;;;2.20;;
14722;SDS011;7452;55.594;12.986;2022-10-03T11:56:59;6.60;;;2.00;;
14722;SDS011;7452;55.594;12.986;2022-10-03T11:59:39;6.03;;;2.28;;
14722;SDS011;7452;55.594;12.986;2022-10-03T12:05:26;7.10;;;1.92;;
14722;SDS011;7452;55.594;12.986;2022-10-03T12:08:11;6.75;;;2.33;;
14722;SDS011;7452;55.594;12.986;2022-10-03T12:11:06;6.45;;;2.00;;
14722;SDS011;7452;55.594;12.986;2022-10-03T12:13:42;8.60;;;1.90;;
14722;SDS011;7452;55.594;12.986;2022-10-03T12:16:28;6.68;;;1.90;;
14722;SDS011;7452;55.594;12.986;2022-10-03T12:19:03;5.07;;;1.95;;
14722;SDS011;7452;55.594;12.986;2022-10-03T12:21:41;7.88;;;1.90;;
14722;SDS011;7452;55.594;12.986;2022-10-03T12:24:20;6.72;;;2.00;;
14722;SDS011;7452;55.594;12.986;2022-10-03T12:26:54;4.70;;;1.83;;
14722;SDS011;7452;55.594;12.986;2022-10-03T12:29:32;5.82;;;1.80;;
14722;SDS011;7452;55.594;12.986;2022-10-03T12:32:11;6.55;;;2.08;;
14722;SDS011;7452;55.594;12.986;2022-10-03T12:34:48;8.45;;;2.17;;
14722;SDS011;7452;55.594;12.986;2022-10-03T12:37:37;6.80;;;2.03;;
14722;SDS011;7452;55.594;12.986;2022-10-03T12:40:16;7.38;;;2.05;;
14722;SDS011;7452;55.594;12.986;2022-10-03T12:42:55;6.28;;;1.95;;
14722;SDS011;7452;55.594;12.986;2022-10-03T12:45:31;9.38;;;1.85;;
14722;SDS011;7452;55.594;12.986;2022-10-03T12:48:11;7.57;;;2.10;;
14722;SDS011;7452;55.594;12.986;2022-10-03T12:51:24;6.28;;;2.20;;
14722;SDS011;7452;55.594;12.986;2022-10-03T12:54:10;9.30;;;2.22;;
14722;SDS011;7452;55.594;12.986;2022-10-03T12:56:56;6.80;;;2.22;;
14722;SDS011;7452;55.594;12.986;2022-10-03T12:59:50;6.20;;;2.17;;
14722;SDS011;7452;55.594;12.986;2022-10-03T13:02:28;5.43;;;1.92;;
14722;SDS011;7452;55.594;12.986;2022-10-03T13:05:16;8.43;;;2.55;;
14722;SDS011;7452;55.594;12.986;2022-10-03T13:07:58;7.60;;;2.63;;
14722;SDS011;7452;55.594;12.986;2022-10-03T13:10:32;6.40;;;2.30;;
14722;SDS011;7452;55.594;12.986;2022-10-03T13:13:19;5.05;;;1.90;;
14722;SDS011;7452;55.594;12.986;2022-10-03T13:16:10;6.53;;;2.00;;
14722;SDS011;7452;55.594;12.986;2022-10-03T13:18:50;6.45;;;2.30;;
14722;SDS011;7452;55.594;12.986;2022-10-03T13:21:26;6.20;;;1.90;;
14722;SDS011;7452;55.594;12.986;2022-10-03T13:24:20;7.30;;;2.45;;
14722;SDS011;7452;55.594;12.986;2022-10-03T13:27:07;5.13;;;1.73;;
14722;SDS011;7452;55.594;12.986;2022-10-03T13:29:47;7.03;;;1.70;;
14722;SDS011;7452;55.594;12.986;2022-10-03T13:32:20;4.57;;;1.88;;
14722;SDS011;7452;55.594;12.986;2022-10-03T13:35:03;5.18;;;2.05;;
14722;SDS011;7452;55.594;12.986;2022-10-03T13:38:28;7.28;;;1.90;;
14722;SDS011;7452;55.594;12.986;2022-10-03T13:41:14;5.35;;;1.90;;
14722;SDS011;7452;55.594;12.986;2022-10-03T13:43:57;6.93;;;2.25;;
14722;SDS011;7452;55.594;12.986;2022-10-03T13:46:30;6.93;;;2.22;;
14722;SDS011;7452;55.594;12.986;2022-10-03T13:49:09;5.22;;;1.92;;
14722;SDS011;7452;55.594;12.986;2022-10-03T13:51:44;6.53;;;1.88;;
14722;SDS011;7452;55.594;12.986;2022-10-03T13:54:18;6.57;;;2.10;;
14722;SDS011;7452;55.594;12.986;2022-10-03T13:57:01;7.95;;;2.10;;
14722;SDS011;7452;55.594;12.986;2022-10-03T14:02:40;5.38;;;1.73;;
14722;SDS011;7452;55.594;12.986;2022-10-03T14:05:30;6.35;;;1.90;;
14722;SDS011;7452;55.594;12.986;2022-10-03T14:08:14;4.93;;;1.63;;
14722;SDS011;7452;55.594;12.986;2022-10-03T14:11:06;5.85;;;1.80;;
14722;SDS011;7452;55.594;12.986;2022-10-03T14:16:49;4.90;;;1.80;;
14722;SDS011;7452;55.594;12.986;2022-10-03T14:19:28;5.07;;;1.70;;
14722;SDS011;7452;55.594;12.986;2022-10-03T14:22:18;6.57;;;2.08;;
14722;SDS011;7452;55.594;12.986;2022-10-03T14:25:11;7.32;;;2.03;;
14722;SDS011;7452;55.594;12.986;2022-10-03T14:27:48;5.25;;;1.48;;
14722;SDS011;7452;55.594;12.986;2022-10-03T14:30:23;3.65;;;1.52;;
14722;SDS011;7452;55.594;12.986;2022-10-03T14:33:02;6.28;;;1.58;;
14722;SDS011;7452;55.594;12.986;2022-10-03T14:35:46;6.63;;;2.00;;
14722;SDS011;7452;55.594;12.986;2022-10-03T14:38:27;7.40;;;3.55;;
14722;SDS011;7452;55.594;12.986;2022-10-03T14:41:28;6.75;;;1.75;;
14722;SDS011;7452;55.594;12.986;2022-10-03T14:44:15;7.72;;;2.00;;
14722;SDS011;7452;55.594;12.986;2022-10-03T14:49:48;5.15;;;1.77;;
14722;SDS011;7452;55.594;12.986;2022-10-03T14:52:22;6.13;;;1.88;;
14722;SDS011;7452;55.594;12.986;2022-10-03T14:55:01;5.13;;;1.98;;
14722;SDS011;7452;55.594;12.986;2022-10-03T14:57:39;8.88;;;2.05;;
14722;SDS011;7452;55.594;12.986;2022-10-03T15:00:22;5.35;;;1.50;;
14722;SDS011;7452;55.594;12.986;2022-10-03T15:02:54;7.17;;;1.97;;
14722;SDS011;7452;55.594;12.986;2022-10-03T15:05:31;6.80;;;1.70;;
14722;SDS011;7452;55.594;12.986;2022-10-03T15:08:00;6.73;;;1.80;;
14722;SDS011;7452;55.594;12.986;2022-10-03T15:10:39;4.10;;;1.70;;
14722;SDS011;7452;55.594;12.986;2022-10-03T15:13:11;4.13;;;1.43;;
14722;SDS011;7452;55.594;12.986;2022-10-03T15:15:50;4.43;;;1.60;;
14722;SDS011;7452;55.594;12.986;2022-10-03T15:18:26;4.63;;;1.80;;
14722;SDS011;7452;55.594;12.986;2022-10-03T15:20:57;4.47;;;2.33;;
14722;SDS011;7452;55.594;12.986;2022-10-03T15:23:31;4.20;;;1.50;;
14722;SDS011;7452;55.594;12.986;2022-10-03T15:26:06;8.57;;;1.80;;
14722;SDS011;7452;55.594;12.986;2022-10-03T15:28:39;4.83;;;1.50;;
14722;SDS011;7452;55.594;12.986;2022-10-03T15:31:32;6.47;;;2.10;;
14722;SDS011;7452;55.594;12.986;2022-10-03T15:34:12;8.27;;;1.77;;
14722;SDS011;7452;55.594;12.986;2022-10-03T15:36:47;5.97;;;1.80;;
14722;SDS011;7452;55.594;12.986;2022-10-03T15:39:23;6.20;;;2.00;;
14722;SDS011;7452;55.594;12.986;2022-10-03T15:42:00;4.43;;;1.60;;
14722;SDS011;7452;55.594;12.986;2022-10-03T15:44:48;8.67;;;1.70;;
14722;SDS011;7452;55.594;12.986;2022-10-03T15:47:20;7.03;;;1.67;;
14722;SDS011;7452;55.594;12.986;2022-10-03T15:49:56;7.30;;;1.60;;
14722;SDS011;7452;55.594;12.986;2022-10-03T15:52:35;7.97;;;3.50;;
14722;SDS011;7452;55.594;12.986;2022-10-03T15:55:12;4.90;;;1.57;;
14722;SDS011;7452;55.594;12.986;2022-10-03T15:57:45;6.37;;;1.53;;
14722;SDS011;7452;55.594;12.986;2022-10-03T16:00:27;7.43;;;1.60;;
14722;SDS011;7452;55.594;12.986;2022-10-03T16:03:03;6.77;;;1.67;;
14722;SDS011;7452;55.594;12.986;2022-10-03T16:05:52;8.00;;;1.80;;
14722;SDS011;7452;55.594;12.986;2022-10-03T16:08:34;6.63;;;1.73;;
14722;SDS011;7452;55.594;12.986;2022-10-03T16:11:27;6.27;;;1.60;;
14722;SDS011;7452;55.594;12.986;2022-10-03T16:14:16;5.83;;;1.70;;
14722;SDS011;7452;55.594;12.986;2022-10-03T16:16:51;9.73;;;1.90;;
14722;SDS011;7452;55.594;12.986;2022-10-03T16:19:26;7.47;;;2.00;;
14722;SDS011;7452;55.594;12.986;2022-10-03T16:22:09;8.37;;;1.80;;
14722;SDS011;7452;55.594;12.986;2022-10-03T16:24:47;7.77;;;1.90;;
14722;SDS011;7452;55.594;12.986;2022-10-03T16:27:26;6.13;;;1.50;;
14722;SDS011;7452;55.594;12.986;2022-10-03T16:30:02;6.70;;;1.70;;
14722;SDS011;7452;55.594;12.986;2022-10-03T16:32:45;4.83;;;1.50;;
14722;SDS011;7452;55.594;12.986;2022-10-03T16:35:25;7.13;;;2.00;;
14722;SDS011;7452;55.594;12.986;2022-10-03T16:40:56;6.13;;;1.80;;
14722;SDS011;7452;55.594;12.986;2022-10-03T16:43:53;4.40;;;1.63;;
14722;SDS011;7452;55.594;12.986;2022-10-03T16:46:25;6.57;;;1.50;;
14722;SDS011;7452;55.594;12.986;2022-10-03T16:48:59;8.70;;;2.57;;
14722;SDS011;7452;55.594;12.986;2022-10-03T16:51:54;8.27;;;1.90;;
14722;SDS011;7452;55.594;12.986;2022-10-03T16:54:36;5.90;;;1.90;;
14722;SDS011;7452;55.594;12.986;2022-10-03T16:57:10;7.53;;;2.03;;
14722;SDS011;7452;55.594;12.986;2022-10-03T16:59:40;9.70;;;1.90;;
14722;SDS011;7452;55.594;12.986;2022-10-03T17:02:30;12.80;;;2.20;;
14722;SDS011;7452;55.594;12.986;2022-10-03T17:05:04;6.70;;;1.90;;
14722;SDS011;7452;55.594;12.986;2022-10-03T17:07:42;8.57;;;1.67;;
14722;SDS011;7452;55.594;12.986;2022-10-03T17:10:26;3.97;;;1.63;;
14722;SDS011;7452;55.594;12.986;2022-10-03T17:13:00;7.43;;;2.00;;
14722;SDS011;7452;55.594;12.986;2022-10-03T17:15:36;10.37;;;2.27;;
14722;SDS011;7452;55.594;12.986;2022-10-03T17:18:18;8.20;;;2.10;;
14722;SDS011;7452;55.594;12.986;2022-10-03T17:21:17;9.60;;;2.00;;
14722;SDS011;7452;55.594;12.986;2022-10-03T17:23:52;8.20;;;2.03;;
14722;SDS011;7452;55.594;12.986;2022-10-03T17:26:37;16.00;;;6.07;;
14722;SDS011;7452;55.594;12.986;2022-10-03T17:29:27;7.70;;;2.10;;
14722;SDS011;7452;55.594;12.986;2022-10-03T17:32:01;10.37;;;2.17;;
14722;SDS011;7452;55.594;12.986;2022-10-03T17:34:40;9.90;;;2.13;;
14722;SDS011;7452;55.594;12.986;2022-10-03T17:37:18;5.80;;;2.07;;
14722;SDS011;7452;55.594;12.986;2022-10-03T17:40:02;8.73;;;2.00;;
14722;SDS011;7452;55.594;12.986;2022-10-03T17:42:44;4.77;;;1.80;;
14722;SDS011;7452;55.594;12.986;2022-10-03T17:45:24;8.50;;;2.00;;
14722;SDS011;7452;55.594;12.986;2022-10-03T17:48:01;10.80;;;2.20;;
14722;SDS011;7452;55.594;12.986;2022-10-03T17:50:36;7.00;;;1.63;;
14722;SDS011;7452;55.594;12.986;2022-10-03T17:53:14;5.33;;;1.83;;
14722;SDS011;7452;55.594;12.986;2022-10-03T17:55:45;5.97;;;2.17;;
14722;SDS011;7452;55.594;12.986;2022-10-03T17:58:20;8.47;;;2.10;;
14722;SDS011;7452;55.594;12.986;2022-10-03T18:00:54;7.93;;;1.80;;
14722;SDS011;7452;55.594;12.986;2022-10-03T18:03:28;10.47;;;2.30;;
14722;SDS011;7452;55.594;12.986;2022-10-03T18:06:00;9.23;;;2.30;;
14722;SDS011;7452;55.594;12.986;2022-10-03T18:08:48;6.83;;;2.53;;
14722;SDS011;7452;55.594;12.986;2022-10-03T18:11:18;7.77;;;2.47;;
14722;SDS011;7452;55.594;12.986;2022-10-03T18:14:00;7.20;;;2.10;;
14722;SDS011;7452;55.594;12.986;2022-10-03T18:16:37;5.80;;;2.03;;
14722;SDS011;7452;55.594;12.986;2022-10-03T18:19:17;9.63;;;2.70;;
14722;SDS011;7452;55.594;12.986;2022-10-03T18:21:55;7.03;;;3.03;;
14722;SDS011;7452;55.594;12.986;2022-10-03T18:24:37;8.43;;;2.27;;
14722;SDS011;7452;55.594;12.986;2022-10-03T18:27:23;14.03;;;2.50;;
14722;SDS011;7452;55.594;12.986;2022-10-03T18:30:02;6.40;;;1.83;;
14722;SDS011;7452;55.594;12.986;2022-10-03T18:32:32;11.27;;;2.73;;
14722;SDS011;7452;55.594;12.986;2022-10-03T18:35:06;8.90;;;2.47;;
14722;SDS011;7452;55.594;12.986;2022-10-03T18:37:53;6.37;;;2.30;;
14722;SDS011;7452;55.594;12.986;2022-10-03T18:40:27;8.00;;;2.43;;
14722;SDS011;7452;55.594;12.986;2022-10-03T18:42:56;9.43;;;2.43;;
14722;SDS011;7452;55.594;12.986;2022-10-03T18:45:27;14.80;;;5.13;;
14722;SDS011;7452;55.594;12.986;2022-10-03T18:47:58;10.53;;;2.60;;
14722;SDS011;7452;55.594;12.986;2022-10-03T18:50:36;10.37;;;2.80;;
14722;SDS011;7452;55.594;12.986;2022-10-03T18:53:18;9.13;;;2.80;;
14722;SDS011;7452;55.594;12.986;2022-10-03T18:55:54;11.83;;;3.03;;
14722;SDS011;7452;55.594;12.986;2022-10-03T18:58:24;12.57;;;2.33;;
14722;SDS011;7452;55.594;12.986;2022-10-03T19:01:03;9.73;;;2.57;;
14722;SDS011;7452;55.594;12.986;2022-10-03T19:03:35;8.40;;;2.37;;
14722;SDS011;7452;55.594;12.986;2022-10-03T19:06:10;11.20;;;2.40;;
14722;SDS011;7452;55.594;12.986;2022-10-03T19:08:45;8.30;;;2.30;;
14722;SDS011;7452;55.594;12.986;2022-10-03T19:11:17;12.33;;;2.70;;
14722;SDS011;7452;55.594;12.986;2022-10-03T19:13:53;12.33;;;2.60;;
14722;SDS011;7452;55.594;12.986;2022-10-03T19:16:31;15.43;;;2.90;;
14722;SDS011;7452;55.594;12.986;2022-10-03T19:19:11;30.10;;;13.90;;
14722;SDS011;7452;55.594;12.986;2022-10-03T19:21:46;9.80;;;2.30;;
14722;SDS011;7452;55.594;12.986;2022-10-03T19:24:16;10.37;;;2.80;;
14722;SDS011;7452;55.594;12.986;2022-10-03T19:26:50;10.77;;;2.63;;
14722;SDS011;7452;55.594;12.986;2022-10-03T19:29:22;11.17;;;3.00;;
14722;SDS011;7452;55.594;12.986;2022-10-03T19:31:58;19.03;;;7.00;;
14722;SDS011;7452;55.594;12.986;2022-10-03T19:34:31;15.17;;;2.67;;
14722;SDS011;7452;55.594;12.986;2022-10-03T19:37:01;12.03;;;2.90;;